logo
Search for airport 
image banner adimage banner adimage banner ad
image banner ad

LODF - Feldbach Lkh

Located in District Sudoststeiermark, Austria

ICAO - , IATA -

Data provided by Airmate  

General information

Coordinates: N46°57'2" E15°52'56"
Elevation is 1568 feet MSL.
 
View others Airports in Styria

Operational data

Special qualification required
Current time UTC:
Current local time:
Weather at : LOWG - Graz ( 34 km )
METAR: LOWG 231750Z AUTO 21003KT 170V240 9999 FEW070 26/17 Q1016 NOSIG
TAF: TAF LOWG 231715Z 2318/2418 VRB05KT 9999 FEW050 TX26/2413Z TN17/2403Z PROB30 TEMPO 2318/2319 SHRA PROB30 TEMPO 2323/2403 0500 BCFG TEMPO 2404/2408 SHRA TEMPO 2411/2417 33010KT
View NOTAMs / SUP AIP / TFR affecting this airport [VIEW]
Communications frequencies: [VIEW]

Runways:

Airport contact information

Address: District Sudoststeiermark Austria

Satellite view of LODF